createdAt,value
2018-03-08T00:00:52.891Z,62.00
2018-03-08T00:03:19.883Z,61.87
2018-03-08T00:05:46.150Z,61.50
2018-03-08T00:08:12.391Z,61.26
2018-03-08T00:10:39.383Z,61.16
2018-03-08T00:13:05.635Z,61.19
2018-03-08T00:15:31.930Z,61.42
2018-03-08T00:17:58.189Z,61.49
2018-03-08T00:20:24.453Z,61.44
2018-03-08T00:22:51.420Z,61.39
2018-03-08T00:25:17.713Z,61.32
2018-03-08T00:27:44.010Z,61.34
2018-03-08T00:30:10.286Z,61.24
2018-03-08T00:32:37.322Z,61.28
2018-03-08T00:35:03.596Z,61.23
2018-03-08T00:37:29.868Z,61.42
2018-03-08T00:39:56.164Z,61.48
2018-03-08T00:42:22.417Z,61.39
2018-03-08T00:44:48.689Z,61.45
2018-03-08T00:47:16.645Z,61.71
2018-03-08T00:49:42.941Z,61.78
2018-03-08T00:52:09.909Z,61.54
2018-03-08T00:54:36.139Z,61.41
2018-03-08T00:57:02.437Z,61.26
2018-03-08T00:59:28.707Z,61.08
2018-03-08T01:01:54.940Z,60.92
2018-03-08T01:04:21.163Z,60.54
2018-03-08T01:06:47.425Z,60.49
2018-03-08T01:09:13.697Z,60.75
2018-03-08T01:11:40.731Z,60.70
2018-03-08T01:14:07.051Z,60.66
2018-03-08T01:16:33.327Z,60.66
2018-03-08T01:18:59.664Z,60.51
2018-03-08T01:21:25.965Z,60.38
2018-03-08T01:23:52.237Z,60.29
2018-03-08T01:26:19.249Z,60.17
2018-03-08T01:28:45.484Z,60.10
2018-03-08T01:31:11.764Z,60.04
2018-03-08T01:33:38.026Z,60.40
2018-03-08T01:36:04.317Z,60.58
2018-03-08T01:38:30.586Z,60.69
2018-03-08T01:40:56.856Z,60.86
2018-03-08T01:43:23.893Z,61.28
2018-03-08T01:45:50.222Z,61.42
2018-03-08T01:48:16.522Z,61.38
2018-03-08T01:50:42.783Z,61.52
2018-03-08T01:53:09.083Z,61.49
2018-03-08T01:55:35.349Z,61.23
2018-03-08T01:58:01.609Z,61.13
2018-03-08T02:00:27.905Z,61.24
2018-03-08T02:02:54.205Z,61.09
2018-03-08T02:05:20.495Z,61.18
2018-03-08T02:07:47.499Z,61.09
2018-03-08T02:10:13.771Z,60.89
2018-03-08T02:12:40.875Z,60.92
2018-03-08T02:15:07.184Z,60.66
2018-03-08T02:17:33.484Z,60.49
2018-03-08T02:20:00.482Z,60.64
2018-03-08T02:22:26.732Z,60.45
2018-03-08T02:24:53.017Z,60.29
2018-03-08T02:27:42.366Z,59.98
2018-03-08T02:30:11.714Z,60.39
2018-03-08T02:32:50.816Z,60.03
2018-03-08T02:35:17.210Z,59.95
2018-03-08T02:37:44.195Z,59.98
2018-03-08T02:40:10.427Z,60.59
2018-03-08T02:42:36.677Z,60.42
2018-03-08T02:45:02.913Z,60.49
2018-03-08T02:47:29.207Z,60.62
2018-03-08T02:49:55.450Z,60.57
2018-03-08T02:52:21.767Z,60.94
2018-03-08T02:54:48.030Z,60.70
2018-03-08T02:57:14.371Z,60.34
2018-03-08T02:59:40.629Z,60.44
2018-03-08T03:02:07.821Z,60.42
2018-03-08T03:04:34.096Z,60.65
2018-03-08T03:07:00.390Z,60.83
2018-03-08T03:09:26.619Z,60.90
2018-03-08T03:11:52.855Z,61.02
2018-03-08T03:14:19.111Z,61.09
2018-03-08T03:16:45.423Z,60.98
2018-03-08T03:19:12.452Z,61.09
2018-03-08T03:21:38.756Z,60.82
2018-03-08T03:24:05.010Z,61.09
2018-03-08T03:26:31.239Z,61.08
2018-03-08T03:28:57.507Z,61.04
2018-03-08T03:31:23.739Z,60.70
2018-03-08T03:33:50.004Z,61.05
2018-03-08T03:36:23.111Z,60.94
2018-03-08T03:38:49.351Z,60.76
2018-03-08T03:41:15.575Z,60.26
2018-03-08T03:43:42.127Z,60.00
2018-03-08T03:46:08.463Z,59.87
2018-03-08T03:48:34.723Z,59.53
2018-03-08T03:51:02.415Z,59.37
2018-03-08T03:53:28.677Z,58.67
2018-03-08T03:55:54.948Z,59.15
2018-03-08T03:58:21.962Z,58.41
2018-03-08T04:00:48.247Z,58.42
2018-03-08T04:03:14.493Z,58.13
2018-03-08T04:05:40.772Z,57.98
2018-03-08T04:08:07.036Z,58.15
2018-03-08T04:10:33.270Z,58.48
2018-03-08T04:12:59.512Z,58.59
2018-03-08T04:15:25.756Z,58.70
2018-03-08T04:17:52.049Z,58.49
2018-03-08T04:20:19.033Z,58.42
2018-03-08T04:22:45.330Z,58.11
2018-03-08T04:25:11.584Z,58.05
2018-03-08T04:27:37.818Z,58.21
2018-03-08T04:30:04.051Z,58.23
2018-03-08T04:32:30.291Z,58.45
2018-03-08T04:34:56.711Z,58.85
2018-03-08T04:37:23.108Z,58.55
2018-03-08T04:39:49.472Z,58.65
2018-03-08T04:42:15.869Z,59.08
2018-03-08T04:44:43.022Z,58.53
2018-03-08T04:47:10.168Z,58.94
2018-03-08T04:49:37.287Z,58.90
2018-03-08T04:52:03.686Z,59.61
2018-03-08T04:54:30.129Z,59.33
2018-03-08T04:56:56.556Z,59.90
2018-03-08T04:59:23.032Z,60.13
2018-03-08T05:01:49.474Z,60.41
2018-03-08T05:04:16.648Z,60.14
2018-03-08T05:06:43.044Z,60.76
2018-03-08T05:09:09.439Z,61.96
2018-03-08T05:11:35.835Z,62.00
2018-03-08T05:14:02.282Z,62.10
2018-03-08T05:16:33.690Z,62.54
2018-03-08T05:19:00.096Z,62.44
2018-03-08T05:21:26.480Z,63.23
2018-03-08T05:23:53.600Z,63.02
2018-03-08T05:26:19.972Z,62.37
2018-03-08T05:28:47.136Z,62.20
2018-03-08T05:31:13.554Z,61.68
2018-03-08T05:33:40.682Z,61.79
2018-03-08T05:36:07.048Z,61.44
2018-03-08T05:38:33.487Z,61.18
2018-03-08T05:40:59.868Z,60.95
2018-03-08T05:43:26.243Z,60.75
2018-03-08T05:45:52.627Z,60.39
2018-03-08T05:48:19.102Z,60.69
2018-03-08T05:50:46.095Z,60.07
2018-03-08T05:53:12.356Z,59.28
2018-03-08T05:55:38.666Z,59.83
2018-03-08T05:58:04.932Z,58.85
2018-03-08T06:00:31.947Z,58.81
2018-03-08T06:02:58.275Z,59.39
2018-03-08T06:05:24.587Z,58.82
2018-03-08T06:07:50.923Z,58.76
2018-03-08T06:10:17.204Z,58.64
2018-03-08T06:12:43.526Z,58.49
2018-03-08T06:15:10.563Z,58.44
2018-03-08T06:17:36.812Z,58.52
2018-03-08T06:20:03.836Z,58.95
2018-03-08T06:22:30.121Z,59.26
2018-03-08T06:24:56.396Z,59.58
2018-03-08T06:27:22.680Z,60.54
2018-03-08T06:29:48.924Z,61.19
2018-03-08T06:32:15.183Z,60.78
2018-03-08T06:34:41.500Z,61.30
2018-03-08T06:37:07.760Z,61.47
2018-03-08T06:39:34.794Z,61.12
2018-03-08T06:42:01.122Z,61.17
2018-03-08T06:44:27.394Z,61.32
2018-03-08T06:46:53.747Z,61.67
2018-03-08T06:49:20.051Z,61.38
2018-03-08T06:51:46.350Z,61.44
2018-03-08T06:54:12.608Z,61.92
2018-03-08T06:56:38.938Z,61.74
2018-03-08T06:59:05.238Z,61.18
2018-03-08T07:01:31.615Z,61.15
2018-03-08T07:03:57.863Z,61.03
2018-03-08T07:06:24.165Z,60.64
2018-03-08T07:08:50.440Z,60.64
2018-03-08T07:11:16.697Z,60.64
2018-03-08T07:13:43.134Z,60.40
2018-03-08T07:16:10.328Z,60.17
2018-03-08T07:18:36.741Z,60.14
2018-03-08T07:21:03.174Z,59.92
2018-03-08T07:23:29.618Z,59.66
2018-03-08T07:25:55.882Z,60.20
2018-03-08T07:28:22.140Z,59.47
2018-03-08T07:30:48.403Z,59.58
2018-03-08T07:33:14.644Z,59.18
2018-03-08T07:35:40.936Z,59.03
2018-03-08T07:38:08.003Z,58.26
2018-03-08T07:40:34.261Z,57.75
2018-03-08T07:43:00.513Z,56.56
2018-03-08T07:45:26.775Z,57.17
2018-03-08T07:47:54.039Z,56.48
2018-03-08T07:50:21.020Z,57.28
2018-03-08T07:52:47.243Z,57.83
2018-03-08T07:55:13.489Z,57.17
2018-03-08T07:57:39.778Z,56.98
2018-03-08T08:00:06.058Z,57.16
2018-03-08T08:02:32.316Z,57.31
2018-03-08T08:05:18.188Z,56.51
2018-03-08T08:08:03.892Z,56.58
2018-03-08T08:10:30.933Z,57.64
2018-03-08T08:12:57.208Z,56.93
2018-03-08T08:15:23.519Z,56.77
2018-03-08T08:17:49.824Z,56.51
2018-03-08T08:20:16.105Z,55.99
2018-03-08T08:22:42.370Z,55.17
2018-03-08T08:25:08.637Z,55.37
2018-03-08T08:27:35.642Z,55.37
2018-03-08T08:30:01.897Z,54.92
2018-03-08T08:32:28.931Z,55.48
2018-03-08T08:34:55.213Z,54.82
2018-03-08T08:37:21.489Z,53.42
2018-03-08T08:39:47.762Z,53.22
2018-03-08T08:42:14.007Z,52.39
2018-03-08T08:44:40.269Z,52.06
2018-03-08T08:47:06.513Z,53.35
2018-03-08T08:49:32.754Z,53.35
2018-03-08T08:51:59.745Z,52.22
2018-03-08T08:54:26.063Z,53.06
2018-03-08T08:56:52.329Z,52.17
2018-03-08T08:59:18.589Z,52.36
2018-03-08T09:01:45.620Z,52.37
2018-03-08T09:04:11.904Z,52.32
2018-03-08T09:06:38.164Z,50.73
2018-03-08T09:09:04.448Z,50.07
2018-03-08T09:11:30.710Z,50.22
2018-03-08T09:13:56.992Z,48.88
2018-03-08T09:16:24.020Z,49.57
2018-03-08T09:18:50.308Z,48.57
2018-03-08T09:21:16.600Z,47.16
2018-03-08T09:23:43.649Z,47.70
2018-03-08T09:26:10.675Z,48.30
2018-03-08T09:28:36.974Z,48.19
2018-03-08T09:31:03.231Z,47.37
2018-03-08T09:33:29.527Z,46.76
2018-03-08T09:35:55.797Z,46.64
2018-03-08T09:38:22.087Z,45.98
2018-03-08T09:40:48.356Z,46.20
2018-03-08T09:43:14.655Z,46.14
2018-03-08T09:45:40.928Z,44.99
2018-03-08T09:48:07.222Z,44.60
2018-03-08T09:50:33.515Z,45.58
2018-03-08T09:52:59.803Z,45.41
2018-03-08T09:55:26.045Z,44.70
2018-03-08T09:57:52.341Z,45.93
2018-03-08T10:00:18.603Z,45.10
2018-03-08T10:02:44.943Z,43.60
2018-03-08T10:05:12.039Z,43.55
2018-03-08T10:07:38.374Z,44.32
2018-03-08T10:10:04.652Z,44.93
2018-03-08T10:12:31.726Z,43.87
2018-03-08T10:14:58.033Z,42.14
2018-03-08T10:17:25.068Z,43.73
2018-03-08T10:19:51.377Z,43.41
2018-03-08T10:22:17.674Z,43.25
2018-03-08T10:24:43.965Z,44.03
2018-03-08T10:27:10.318Z,44.75
2018-03-08T10:29:37.347Z,44.79
2018-03-08T10:32:04.405Z,44.13
2018-03-08T10:34:31.428Z,44.44
2018-03-08T10:36:57.773Z,44.00
2018-03-08T10:41:50.433Z,43.22
2018-03-08T10:44:16.714Z,43.90
2018-03-08T10:46:43.032Z,44.69
2018-03-08T10:49:09.293Z,45.68
2018-03-08T10:51:35.865Z,47.41
2018-03-08T10:54:02.167Z,45.13
2018-03-08T10:56:28.500Z,44.37
2018-03-08T10:58:54.832Z,44.29
2018-03-08T11:01:25.198Z,44.25
2018-03-08T11:03:54.044Z,44.15
2018-03-08T11:06:20.565Z,43.26
2018-03-08T11:08:46.939Z,41.61
2018-03-08T11:11:20.917Z,40.97
2018-03-08T11:13:47.226Z,41.00
2018-03-08T11:16:13.553Z,41.64
2018-03-08T11:18:39.858Z,42.49
2018-03-08T11:21:06.864Z,40.40
2018-03-08T11:23:33.237Z,40.42
2018-03-08T11:25:59.548Z,40.82
2018-03-08T11:28:26.549Z,40.72
2018-03-08T11:30:52.861Z,39.91
2018-03-08T11:33:19.149Z,38.15
2018-03-08T11:35:45.539Z,37.21
2018-03-08T11:38:18.922Z,35.04
2018-03-08T11:40:45.250Z,34.92
2018-03-08T11:43:11.584Z,35.91
2018-03-08T11:45:37.920Z,32.91
2018-03-08T11:48:04.194Z,30.45
2018-03-08T11:50:30.514Z,33.91
2018-03-08T11:52:56.849Z,35.17
2018-03-08T11:55:23.178Z,33.56
2018-03-08T11:57:49.480Z,30.14
2018-03-08T12:00:15.875Z,26.97
2018-03-08T12:02:42.200Z,26.32
2018-03-08T12:05:08.606Z,26.62
2018-03-08T12:07:34.941Z,28.90
2018-03-08T12:10:01.273Z,33.01
2018-03-08T12:12:27.562Z,31.79
2018-03-08T12:14:53.849Z,29.87
2018-03-08T12:17:20.121Z,31.19
2018-03-08T12:19:46.379Z,32.03
2018-03-08T12:22:12.665Z,33.37
2018-03-08T12:24:39.737Z,35.02
2018-03-08T12:27:05.993Z,33.96
2018-03-08T12:29:32.296Z,26.14
2018-03-08T12:31:58.619Z,22.41
2018-03-08T12:34:24.897Z,23.24
2018-03-08T12:36:51.237Z,27.02
2018-03-08T12:39:17.561Z,28.42
2018-03-08T12:41:43.877Z,27.54
2018-03-08T12:44:10.164Z,30.99
2018-03-08T12:46:36.501Z,31.94
2018-03-08T12:49:02.814Z,33.46
2018-03-08T12:51:29.905Z,34.48
2018-03-08T12:53:56.230Z,35.48
2018-03-08T12:56:22.522Z,35.75
2018-03-08T12:58:49.568Z,33.86
2018-03-08T13:01:16.632Z,29.04
2018-03-08T13:03:43.725Z,25.86
2018-03-08T13:06:10.024Z,24.44
2018-03-08T13:08:36.603Z,26.02
2018-03-08T13:11:02.901Z,21.37
2018-03-08T13:13:29.201Z,22.04
2018-03-08T13:15:56.245Z,24.01
2018-03-08T13:18:23.291Z,21.72
2018-03-08T13:20:50.342Z,18.90
2018-03-08T13:23:17.388Z,19.24
2018-03-08T13:25:44.491Z,21.68
2018-03-08T13:28:10.833Z,23.35
2018-03-08T13:30:37.128Z,22.01
2018-03-08T13:33:03.430Z,22.17
2018-03-08T13:35:30.572Z,19.79
2018-03-08T13:37:57.588Z,18.70
2018-03-08T13:40:23.899Z,20.63
2018-03-08T13:42:50.168Z,23.61
2018-03-08T13:45:16.462Z,23.28
2018-03-08T13:47:42.759Z,21.19
2018-03-08T13:50:09.814Z,18.20
2018-03-08T13:52:36.182Z,17.24
2018-03-08T13:55:02.535Z,17.34
2018-03-08T13:57:28.826Z,19.87
2018-03-08T13:59:55.142Z,22.24
2018-03-08T14:02:21.445Z,19.52
2018-03-08T14:04:48.536Z,16.06
2018-03-08T14:07:14.865Z,16.50
2018-03-08T14:09:41.162Z,18.73
2018-03-08T14:12:08.180Z,21.06
2018-03-08T14:14:35.246Z,20.77
2018-03-08T14:17:02.321Z,19.75
2018-03-08T14:19:28.598Z,18.92
2018-03-08T14:21:54.908Z,20.96
2018-03-08T14:24:21.224Z,19.38
2018-03-08T14:26:47.603Z,20.12
2018-03-08T14:29:13.950Z,19.73
2018-03-08T14:31:40.249Z,20.06
2018-03-08T14:34:06.549Z,19.59
2018-03-08T14:36:32.846Z,20.81
2018-03-08T14:38:59.904Z,19.75
2018-03-08T14:41:26.951Z,20.15
2018-03-08T14:43:53.985Z,22.82
2018-03-08T14:46:21.006Z,21.44
2018-03-08T14:48:47.303Z,19.51
2018-03-08T14:51:13.628Z,19.37
2018-03-08T14:53:39.932Z,19.84
2018-03-08T14:56:06.258Z,20.04
2018-03-08T14:58:33.278Z,21.51
2018-03-08T15:00:59.916Z,19.57
2018-03-08T15:03:26.250Z,19.27
2018-03-08T15:05:52.486Z,20.24
2018-03-08T15:08:18.765Z,18.83
2018-03-08T15:10:45.051Z,21.62
2018-03-08T15:13:18.176Z,21.49
2018-03-08T15:15:56.879Z,21.20
2018-03-08T15:21:25.129Z,17.12
2018-03-08T15:23:51.429Z,15.78
2018-03-08T15:26:17.721Z,18.22
2018-03-08T15:28:44.146Z,19.14
2018-03-08T15:31:10.445Z,23.17
2018-03-08T15:33:36.711Z,22.64
2018-03-08T15:36:03.068Z,21.34
2018-03-08T15:38:30.119Z,20.54
2018-03-08T15:40:57.276Z,18.86
2018-03-08T15:43:24.316Z,22.04
2018-03-08T15:45:51.344Z,27.68
2018-03-08T15:48:17.686Z,31.57
2018-03-08T15:50:44.032Z,33.80
2018-03-08T15:53:11.090Z,34.75
2018-03-08T15:55:37.394Z,35.36
2018-03-08T15:58:03.800Z,36.06
2018-03-08T16:00:30.174Z,36.38
2018-03-08T16:02:56.400Z,36.88
2018-03-08T16:05:22.693Z,36.72
2018-03-08T16:11:31.322Z,37.54
2018-03-08T16:13:57.607Z,37.26
2018-03-08T16:16:24.663Z,37.27
2018-03-08T16:18:51.759Z,37.55
2018-03-08T16:21:18.045Z,37.58
2018-03-08T16:23:45.095Z,37.70
2018-03-08T16:26:11.391Z,37.26
2018-03-08T16:28:37.702Z,37.16
2018-03-08T16:31:04.033Z,37.12
2018-03-08T16:33:30.381Z,37.21
2018-03-08T16:35:56.764Z,37.40
2018-03-08T16:38:23.087Z,37.40
2018-03-08T16:40:49.383Z,37.48
2018-03-08T16:43:15.800Z,37.57
2018-03-08T16:45:42.119Z,37.76
2018-03-08T16:48:08.518Z,38.00
2018-03-08T16:50:34.799Z,38.33
2018-03-08T16:53:01.213Z,38.65
2018-03-08T16:55:27.541Z,39.13
2018-03-08T16:57:53.895Z,39.72
2018-03-08T17:00:20.258Z,40.47
2018-03-08T17:02:46.545Z,40.88
2018-03-08T17:05:12.892Z,41.29
2018-03-08T17:07:39.212Z,41.65
2018-03-08T17:10:05.534Z,42.20
2018-03-08T17:12:31.869Z,42.43
2018-03-08T17:14:58.216Z,43.11
2018-03-08T17:17:24.565Z,43.45
2018-03-08T17:19:51.776Z,44.11
2018-03-08T17:22:18.175Z,44.46
2018-03-08T17:24:44.571Z,44.69
2018-03-08T17:27:11.110Z,44.91
2018-03-08T17:29:45.410Z,44.98
2018-03-08T17:32:11.756Z,45.33
2018-03-08T17:34:38.793Z,45.66
2018-03-08T17:37:05.115Z,45.87
2018-03-08T17:39:31.446Z,45.83
2018-03-08T17:41:58.533Z,45.79
2018-03-08T17:44:25.665Z,45.52
2018-03-08T17:46:51.976Z,45.47
2018-03-08T17:49:18.351Z,45.78
2018-03-08T17:51:45.447Z,46.11
2018-03-08T17:54:11.749Z,46.20
2018-03-08T17:56:38.127Z,46.34
2018-03-08T17:59:04.474Z,46.01
2018-03-08T18:01:30.806Z,45.55
2018-03-08T18:03:57.127Z,45.60
2018-03-08T18:06:23.466Z,45.99
2018-03-08T18:08:49.768Z,46.17
2018-03-08T18:11:16.121Z,46.39
2018-03-08T18:13:42.477Z,46.41
2018-03-08T18:16:09.611Z,46.50
2018-03-08T18:47:54.452Z,54.65
2018-03-08T18:50:20.783Z,52.87
2018-03-08T18:52:47.089Z,52.04
2018-03-08T18:55:13.407Z,51.57
2018-03-08T18:57:39.709Z,51.01
2018-03-08T19:00:05.989Z,50.75
2018-03-08T19:02:32.293Z,50.56
2018-03-08T19:04:59.410Z,50.27
2018-03-08T19:07:25.736Z,50.28
2018-03-08T19:09:52.051Z,50.13
2018-03-08T19:12:18.365Z,50.23
2018-03-08T19:14:44.704Z,50.29
2018-03-08T19:17:11.036Z,50.22
2018-03-08T19:19:37.354Z,50.11
2018-03-08T19:22:03.665Z,50.09
2018-03-08T19:24:29.996Z,49.66
2018-03-08T19:26:56.375Z,49.62
2018-03-08T19:29:22.748Z,49.37
2018-03-08T19:31:49.816Z,49.44
2018-03-08T19:34:16.244Z,49.29
2018-03-08T19:36:42.683Z,48.95
2018-03-08T19:39:09.118Z,48.62
2018-03-08T19:41:35.534Z,48.38
2018-03-08T19:44:02.607Z,48.21
2018-03-08T19:46:28.919Z,48.14
2018-03-08T19:48:56.039Z,47.76
2018-03-08T19:51:22.335Z,47.54
2018-03-08T19:53:48.651Z,47.56
2018-03-08T19:56:14.994Z,47.70
2018-03-08T20:03:16.580Z,48.05
2018-03-08T20:05:43.001Z,47.54
2018-03-08T20:08:09.542Z,47.01
2018-03-08T20:10:35.985Z,46.81
2018-03-08T20:13:02.464Z,46.43
2018-03-08T20:15:29.554Z,46.14
2018-03-08T20:17:55.966Z,46.17
2018-03-08T20:20:23.080Z,45.77
2018-03-08T20:22:49.420Z,45.81
2018-03-08T20:25:15.799Z,45.80
2018-03-08T20:27:42.199Z,45.64
2018-03-08T20:30:09.291Z,45.25
2018-03-08T20:32:35.614Z,45.32
2018-03-08T20:35:01.977Z,44.94
2018-03-08T20:37:28.333Z,44.70
2018-03-08T20:39:54.750Z,44.77
2018-03-08T20:42:21.257Z,44.69
2018-03-08T20:44:47.665Z,44.07
2018-03-08T20:47:14.013Z,44.17
2018-03-08T20:49:40.437Z,44.10
2018-03-08T20:52:06.839Z,43.89
2018-03-08T20:54:33.905Z,43.83
2018-03-08T20:57:00.956Z,43.56
2018-03-08T20:59:27.260Z,43.92
2018-03-08T21:01:53.554Z,43.70
2018-03-08T21:04:19.929Z,43.71
2018-03-08T21:06:48.679Z,43.51
2018-03-08T21:09:24.612Z,43.44
2018-03-08T21:11:50.946Z,43.52
2018-03-08T21:14:17.250Z,43.39
2018-03-08T21:16:44.351Z,42.92
2018-03-08T21:19:10.779Z,42.99
2018-03-08T21:21:37.265Z,42.69
2018-03-08T21:24:03.691Z,42.66
2018-03-08T21:26:30.782Z,42.38
2018-03-08T21:28:57.128Z,42.06
2018-03-08T21:31:23.519Z,42.08
2018-03-08T21:33:49.792Z,42.00
2018-03-08T21:36:16.835Z,41.82
2018-03-08T21:38:43.211Z,41.74
2018-03-08T21:41:10.221Z,41.64
2018-03-08T21:43:36.541Z,41.32
2018-03-08T21:46:02.833Z,41.56
2018-03-08T21:48:29.866Z,41.28
2018-03-08T21:50:56.157Z,41.41
2018-03-08T21:53:22.450Z,41.26
2018-03-08T21:55:48.720Z,41.37
2018-03-08T21:58:15.044Z,41.17
2018-03-08T22:00:41.368Z,41.48
2018-03-08T22:03:07.682Z,41.44
2018-03-08T22:05:34.022Z,41.05
2018-03-08T22:08:00.340Z,41.17
2018-03-08T22:10:26.608Z,41.29
2018-03-08T22:12:52.900Z,41.41
2018-03-08T22:15:19.186Z,41.72
2018-03-08T22:17:45.503Z,41.93
2018-03-08T22:20:11.812Z,41.93
2018-03-08T22:22:38.114Z,42.12
2018-03-08T22:25:04.573Z,42.14
2018-03-08T22:27:30.881Z,41.81
2018-03-08T22:29:57.192Z,40.99
2018-03-08T22:32:24.300Z,41.35
2018-03-08T22:34:50.619Z,40.97
2018-03-08T22:37:16.949Z,40.79
2018-03-08T22:39:43.244Z,41.24
2018-03-08T22:42:10.257Z,40.95
2018-03-08T22:44:36.571Z,41.39
2018-03-08T22:47:03.196Z,41.69
2018-03-08T22:49:29.558Z,41.58
2018-03-08T22:51:55.887Z,41.46
2018-03-08T22:54:22.185Z,41.76
2018-03-08T22:56:48.480Z,41.66
2018-03-08T22:59:15.502Z,41.96
2018-03-08T23:04:59.487Z,43.10
2018-03-08T23:07:26.569Z,43.00
2018-03-08T23:09:52.868Z,42.65
2018-03-08T23:12:19.840Z,42.59
2018-03-08T23:14:46.194Z,42.87
2018-03-08T23:17:12.504Z,43.02
2018-03-08T23:19:38.812Z,43.03
2018-03-08T23:22:05.836Z,43.70
2018-03-08T23:24:32.116Z,49.54
2018-03-08T23:26:58.386Z,51.42
2018-03-08T23:29:24.639Z,55.15
2018-03-08T23:31:51.648Z,55.00
2018-03-08T23:34:17.959Z,54.75
2018-03-08T23:36:44.245Z,55.74
2018-03-08T23:39:10.521Z,55.99
2018-03-08T23:41:36.830Z,55.38
2018-03-08T23:44:03.125Z,54.50
2018-03-08T23:46:29.387Z,53.77
2018-03-08T23:48:55.667Z,53.81
2018-03-08T23:51:21.989Z,54.31
2018-03-08T23:53:48.287Z,54.87
2018-03-08T23:56:14.592Z,54.81
2018-03-08T23:58:41.632Z,54.62
